Time;durP1;ratioP1;P1;durP2;ratioP2;P2;SDS_P1;SDS_P2;PMS_P1;PMS_P2;Temp;Humidity;BMP_temperature;BMP_pressure;BME280_temperature;BME280_humidity;BME280_pressure;Samples;Min_cycle;Max_cycle;Signal;HPM_P1;HPM_P2
2021/05/16 00:00:09;;;;;;;10.23;9.33;;;;;;;12.18;68.94;99763.41;5099393;28;20490;-63
2021/05/16 00:02:35;;;;;;;10.20;9.20;;;;;;;11.95;69.44;99762.81;5107958;28;20585;-63
2021/05/16 00:05:00;;;;;;;9.50;8.70;;;;;;;11.93;69.54;99761.06;5120209;28;20401;-63
2021/05/16 00:07:25;;;;;;;9.47;8.67;;;;;;;12.16;69.18;99768.66;5119700;28;20224;-63
2021/05/16 00:09:51;;;;;;;11.37;9.50;;;;;;;11.78;69.61;99760.38;5119713;28;20540;-63
2021/05/16 00:12:16;;;;;;;10.07;9.27;;;;;;;12.23;68.66;99752.03;5119751;28;20174;-62
2021/05/16 00:14:41;;;;;;;9.37;8.67;;;;;;;12.35;67.83;99750.97;5119657;28;20278;-63
2021/05/16 00:17:07;;;;;;;9.07;8.27;;;;;;;12.16;68.78;99752.13;5113369;28;20180;-63
2021/05/16 00:19:32;;;;;;;8.80;7.90;;;;;;;12.01;69.37;99756.66;5099514;28;20192;-63
2021/05/16 00:21:58;;;;;;;9.77;8.93;;;;;;;11.94;69.21;99753.25;5098848;28;20172;-63
2021/05/16 00:24:24;;;;;;;9.00;8.30;;;;;;;12.38;67.91;99753.56;5099001;28;20223;-63
2021/05/16 00:26:50;;;;;;;9.30;8.50;;;;;;;12.16;68.39;99755.59;5098620;28;20748;-63
2021/05/16 00:29:16;;;;;;;9.07;8.27;;;;;;;11.74;69.66;99761.25;5098904;28;20179;-63
2021/05/16 00:31:41;;;;;;;9.47;8.67;;;;;;;12.27;67.68;99752.84;5113745;28;20263;-62
2021/05/16 00:34:06;;;;;;;9.03;8.17;;;;;;;12.33;68.32;99754.53;5119688;28;20427;-62
2021/05/16 00:36:32;;;;;;;9.00;8.20;;;;;;;12.48;67.14;99750.84;5119062;28;20214;-63
2021/05/16 00:38:58;;;;;;;8.70;8.00;;;;;;;12.35;67.46;99752.75;5119107;28;20175;-63
2021/05/16 00:41:23;;;;;;;8.43;7.73;;;;;;;12.40;67.62;99745.72;5119387;28;20580;-63
2021/05/16 00:43:49;;;;;;;7.90;7.20;;;;;;;12.44;66.75;99747.38;5119064;28;20451;-62
2021/05/16 00:46:14;;;;;;;8.63;7.93;;;;;;;12.48;66.70;99749.06;5104055;28;20450;-63
2021/05/16 00:48:39;;;;;;;7.20;6.70;;;;;;;12.33;66.91;99744.06;5099116;28;20176;-62
2021/05/16 00:51:05;;;;;;;7.73;7.13;;;;;;;12.19;67.60;99742.50;5098213;28;20196;-62
2021/05/16 00:53:31;;;;;;;7.83;7.17;;;;;;;12.60;65.95;99745.44;5098479;28;20552;-62
2021/05/16 00:55:57;;;;;;;7.37;6.70;;;;;;;12.17;67.13;99744.25;5099002;28;20429;-62
2021/05/16 00:58:23;;;;;;;7.70;7.00;;;;;;;11.89;68.21;99739.38;5097821;28;20164;-63
2021/05/16 01:00:49;;;;;;;7.50;6.90;;;;;;;12.08;67.52;99734.81;5110690;28;20469;-61
2021/05/16 01:03:14;;;;;;;8.27;7.57;;;;;;;12.32;66.73;99732.72;5119359;28;20562;-62
2021/05/16 01:05:42;;;;;;;14.73;7.27;;;;;;;12.39;66.71;99729.13;5118759;28;20258;-62
2021/05/16 01:08:08;;;;;;;7.77;7.17;;;;;;;12.51;66.64;99732.47;5118733;28;20465;-62
2021/05/16 01:10:34;;;;;;;9.33;8.53;;;;;;;12.56;66.04;99738.50;5119000;28;20368;-62
2021/05/16 01:12:59;;;;;;;7.80;7.20;;;;;;;11.97;68.33;99731.44;5118561;28;20482;-62
2021/05/16 01:15:27;;;;;;;7.83;7.23;;;;;;;12.29;67.05;99723.19;5107097;28;20203;-62
2021/05/16 01:17:52;;;;;;;7.70;7.10;;;;;;;12.54;65.79;99727.19;5098686;28;20540;-62
2021/05/16 01:20:21;;;;;;;7.77;7.07;;;;;;;12.50;66.94;99730.75;5097944;28;20436;-62
2021/05/16 01:22:59;;;;;;;8.40;7.60;;;;;;;12.34;66.57;99730.97;5097986;28;20169;-62
2021/05/16 01:25:25;;;;;;;8.07;7.47;;;;;;;11.81;68.33;99730.72;5098015;28;20436;-63
2021/05/16 01:27:51;;;;;;;7.83;7.20;;;;;;;12.07;67.63;99727.84;5098318;28;20401;-62
2021/05/16 01:30:17;;;;;;;7.60;7.00;;;;;;;12.46;66.73;99724.69;5106579;28;20758;-62
2021/05/16 01:32:43;;;;;;;8.20;7.60;;;;;;;12.49;66.36;99722.06;5118283;28;20412;-62
2021/05/16 01:35:08;;;;;;;7.97;7.37;;;;;;;11.62;69.90;99730.06;5118426;28;20414;-62
2021/05/16 01:37:34;;;;;;;8.57;7.80;;;;;;;12.05;68.84;99726.97;5117175;28;20171;-63
2021/05/16 01:40:00;;;;;;;8.90;8.20;;;;;;;12.15;67.67;99719.91;5122737;28;20214;-62
2021/05/16 01:42:26;;;;;;;9.40;8.70;;;;;;;12.10;67.92;99722.56;5120540;28;20720;-63
2021/05/16 01:44:54;;;;;;;9.27;8.57;;;;;;;12.34;67.53;99719.63;5123041;28;20206;-63
2021/05/16 01:47:19;;;;;;;8.93;8.20;;;;;;;12.40;67.37;99725.66;5116385;27;20437;-63
2021/05/16 01:49:50;;;;;;;9.33;8.47;;;;;;;12.25;67.67;99726.72;5101993;28;20476;-62
2021/05/16 01:52:16;;;;;;;9.03;8.33;;;;;;;11.54;70.62;99732.78;5102353;28;20637;-62
2021/05/16 01:54:41;;;;;;;8.77;8.00;;;;;;;12.10;68.54;99732.16;5101921;28;20431;-63
2021/05/16 01:57:08;;;;;;;9.30;8.50;;;;;;;12.13;68.36;99725.13;5101978;28;20172;-62
2021/05/16 01:59:34;;;;;;;8.47;7.80;;;;;;;12.26;67.51;99738.06;5102324;28;20192;-61
2021/05/16 02:02:00;;;;;;;8.83;8.13;;;;;;;12.37;66.85;99736.16;5106055;28;20421;-63
2021/05/16 02:04:31;;;;;;;8.00;7.40;;;;;;;12.32;66.97;99729.28;5122347;28;20392;-62
2021/05/16 02:06:57;;;;;;;8.40;7.70;;;;;;;11.51;69.70;99740.63;5122443;28;20487;-63
2021/05/16 02:09:23;;;;;;;7.93;7.07;;;;;;;12.07;68.53;99737.41;5122227;28;20474;-62
2021/05/16 02:11:50;;;;;;;8.60;7.90;;;;;;;11.89;68.28;99733.25;5121878;28;20384;-63
2021/05/16 02:14:26;;;;;;;7.60;7.00;;;;;;;11.95;68.28;99738.44;5122428;28;20180;-63
2021/05/16 02:16:52;;;;;;;8.20;7.50;;;;;;;12.13;67.70;99732.13;5121903;28;20690;-62
2021/05/16 02:19:18;;;;;;;7.40;6.80;;;;;;;11.50;69.12;99733.69;5121804;28;20528;-62
2021/05/16 02:21:43;;;;;;;8.10;7.40;;;;;;;11.85;68.88;99734.19;5120829;28;20387;-63
2021/05/16 02:24:09;;;;;;;8.10;7.40;;;;;;;11.93;68.68;99729.72;5120233;28;20227;-63
2021/05/16 02:26:34;;;;;;;8.37;7.67;;;;;;;12.17;67.85;99720.75;5122096;28;20167;-63
2021/05/16 02:28:59;;;;;;;8.63;7.80;;;;;;;12.05;67.94;99723.53;5121594;28;20167;-63
2021/05/16 02:31:24;;;;;;;8.37;7.60;;;;;;;11.62;68.82;99722.25;5121470;28;20167;-63
2021/05/16 02:33:50;;;;;;;8.80;8.10;;;;;;;11.24;70.94;99729.59;5122176;28;20525;-62
2021/05/16 02:36:15;;;;;;;8.80;7.93;;;;;;;11.72;69.72;99728.25;5121603;28;20203;-63
2021/05/16 02:38:40;;;;;;;8.37;7.67;;;;;;;12.00;68.31;99726.19;5121559;28;20254;-62
2021/05/16 02:41:05;;;;;;;8.23;7.63;;;;;;;12.32;67.33;99722.28;5121678;28;20614;-62
2021/05/16 02:43:31;;;;;;;7.90;7.30;;;;;;;11.58;70.00;99729.25;5119694;28;20179;-63
2021/05/16 02:45:56;;;;;;;9.10;8.30;;;;;;;12.00;69.03;99728.81;5121329;28;20186;-63
2021/05/16 02:48:21;;;;;;;8.43;7.73;;;;;;;11.88;68.86;99732.41;5121595;28;20176;-62
2021/05/16 02:50:47;;;;;;;8.47;7.67;;;;;;;11.93;68.94;99729.72;5120360;28;20226;-62
2021/05/16 02:53:14;;;;;;;8.53;7.83;;;;;;;11.51;69.76;99732.78;5121157;27;20210;-62
2021/05/16 02:55:39;;;;;;;8.10;7.50;;;;;;;11.90;69.19;99721.94;5121780;28;20216;-62
2021/05/16 02:58:04;;;;;;;12.10;8.50;;;;;;;11.89;69.06;99721.09;5121095;28;20425;-63
2021/05/16 03:00:29;;;;;;;8.57;7.87;;;;;;;12.08;68.13;99718.25;5120891;28;20336;-63
2021/05/16 03:02:55;;;;;;;9.07;8.27;;;;;;;11.90;68.88;99719.31;5119249;28;20195;-63
2021/05/16 03:05:20;;;;;;;8.73;8.03;;;;;;;11.95;68.90;99718.41;5121122;28;20554;-63
2021/05/16 03:07:46;;;;;;;8.50;7.90;;;;;;;12.05;68.63;99724.38;5120937;28;20475;-62
2021/05/16 03:10:11;;;;;;;8.50;7.80;;;;;;;11.94;68.89;99719.28;5121144;28;20191;-63
2021/05/16 03:12:36;;;;;;;8.63;7.80;;;;;;;11.68;69.52;99723.94;5120709;28;20198;-62
2021/05/16 03:15:02;;;;;;;8.97;8.27;;;;;;;11.71;69.65;99718.69;5120779;28;20171;-63
2021/05/16 03:17:28;;;;;;;8.97;8.20;;;;;;;12.08;68.59;99723.47;5121429;28;20184;-63
2021/05/16 03:19:53;;;;;;;9.40;8.50;;;;;;;11.76;69.47;99715.13;5120827;27;20204;-63
2021/05/16 03:22:18;;;;;;;8.70;8.00;;;;;;;11.68;69.93;99714.34;5113401;28;20287;-63
2021/05/16 03:24:44;;;;;;;10.03;9.23;;;;;;;11.42;70.82;99722.44;5100127;28;20227;-63
2021/05/16 03:27:09;;;;;;;8.97;8.17;;;;;;;12.04;68.58;99712.22;5100325;28;20175;-63
2021/05/16 03:29:35;;;;;;;9.43;8.53;;;;;;;12.03;68.24;99710.47;5100391;28;20176;-62
2021/05/16 03:32:00;;;;;;;8.97;8.10;;;;;;;11.20;71.33;99714.84;5099920;28;20434;-63
2021/05/16 03:34:26;;;;;;;9.47;8.50;;;;;;;11.86;69.90;99709.78;5099849;28;20421;-63
2021/05/16 03:36:52;;;;;;;9.63;8.83;;;;;;;11.74;69.66;99705.56;5101457;28;20559;-62
2021/05/16 03:39:17;;;;;;;9.73;8.83;;;;;;;11.59;69.89;99709.22;5099965;28;20207;-62
2021/05/16 03:41:43;;;;;;;9.60;8.80;;;;;;;11.22;72.39;99714.84;5099803;28;20433;-62
2021/05/16 03:44:08;;;;;;;9.43;8.63;;;;;;;11.64;70.55;99712.66;5100358;28;20541;-63
2021/05/16 03:46:34;;;;;;;9.10;8.30;;;;;;;11.64;70.13;99720.50;5099766;28;20172;-62
2021/05/16 03:49:00;;;;;;;8.73;8.03;;;;;;;11.56;71.05;99720.56;5099582;28;20176;-63
2021/05/16 03:51:26;;;;;;;7.80;7.20;;;;;;;11.86;70.20;99715.88;5099784;28;20446;-63
2021/05/16 03:53:51;;;;;;;7.97;7.37;;;;;;;11.76;70.37;99715.13;5099505;28;20422;-63
2021/05/16 03:56:16;;;;;;;8.10;7.50;;;;;;;11.52;71.25;99718.03;5099515;28;20179;-63
2021/05/16 03:58:42;;;;;;;8.10;7.40;;;;;;;11.27;70.98;99723.47;5099783;28;20501;-63
2021/05/16 04:01:07;;;;;;;8.17;7.50;;;;;;;11.74;69.41;99714.25;5098911;28;20204;-63
2021/05/16 04:03:32;;;;;;;7.70;7.00;;;;;;;11.12;71.70;99717.53;5099099;28;20183;-63
2021/05/16 04:05:58;;;;;;;7.53;6.93;;;;;;;11.25;71.78;99722.63;5099794;28;20255;-63
2021/05/16 04:08:23;;;;;;;8.03;6.87;;;;;;;11.72;69.64;99716.03;5099378;28;20218;-63
2021/05/16 04:10:48;;;;;;;7.40;6.80;;;;;;;11.09;71.52;99725.38;5099280;28;20191;-62
2021/05/16 04:13:14;;;;;;;8.00;7.30;;;;;;;11.95;69.12;99717.56;5099658;28;20172;-62
2021/05/16 04:15:39;;;;;;;7.83;7.20;;;;;;;11.48;70.76;99730.22;5099185;28;20402;-62
2021/05/16 04:18:04;;;;;;;8.33;7.63;;;;;;;12.15;68.48;99714.69;5111418;28;20548;-62
2021/05/16 04:20:31;;;;;;;8.40;7.43;;;;;;;11.69;70.54;99726.53;5119908;28;20572;-62
2021/05/16 04:22:58;;;;;;;7.30;6.70;;;;;;;11.86;70.25;99728.06;5119148;28;20177;-62
2021/05/16 04:25:23;;;;;;;7.50;6.80;;;;;;;12.06;69.43;99733.09;5102817;28;20703;-62
2021/05/16 04:27:49;;;;;;;7.63;7.03;;;;;;;12.08;69.36;99732.19;5099433;28;20471;-63
2021/05/16 04:30:14;;;;;;;7.40;6.80;;;;;;;11.15;72.28;99737.50;5098907;28;20289;-62
2021/05/16 04:32:40;;;;;;;7.73;7.13;;;;;;;11.49;71.12;99742.41;5106562;28;20195;-62
2021/05/16 04:35:05;;;;;;;7.80;7.10;;;;;;;11.98;69.25;99734.94;5119673;28;20440;-62
2021/05/16 04:37:31;;;;;;;7.50;6.90;;;;;;;12.28;68.16;99731.91;5119437;28;20175;-61
2021/05/16 04:39:56;;;;;;;7.90;7.20;;;;;;;12.42;66.99;99743.91;5119151;28;20286;-62
2021/05/16 04:42:21;;;;;;;7.80;7.20;;;;;;;12.28;67.33;99739.75;5119185;28;20191;-63
2021/05/16 04:44:47;;;;;;;8.80;8.03;;;;;;;11.92;69.36;99743.66;5119113;28;20175;-63
2021/05/16 04:47:12;;;;;;;8.00;7.40;;;;;;;12.49;67.09;99734.25;5112043;28;20191;-62
2021/05/16 04:49:38;;;;;;;8.03;7.23;;;;;;;12.46;66.90;99728.19;5099508;28;20164;-62
2021/05/16 04:52:04;;;;;;;7.47;6.87;;;;;;;12.67;66.01;99733.97;5098780;28;20217;-62
2021/05/16 04:54:29;;;;;;;7.87;7.23;;;;;;;12.79;65.81;99727.69;5098662;28;20164;-63
2021/05/16 04:56:55;;;;;;;7.87;7.20;;;;;;;12.68;66.11;99725.25;5098934;28;20421;-62
2021/05/16 04:59:20;;;;;;;7.63;7.03;;;;;;;12.39;67.20;99731.75;5098543;28;20232;-63
2021/05/16 05:01:46;;;;;;;7.60;7.00;;;;;;;12.77;65.83;99735.56;5098396;28;20175;-63
2021/05/16 05:04:11;;;;;;;8.27;7.50;;;;;;;12.78;66.30;99733.81;5098775;28;20183;-62
2021/05/16 05:06:37;;;;;;;8.60;7.80;;;;;;;12.96;65.39;99732.66;5097697;28;20168;-63
2021/05/16 05:09:05;;;;;;;7.83;7.17;;;;;;;12.74;66.16;99732.97;5097715;28;20183;-62
2021/05/16 05:11:30;;;;;;;7.10;6.50;;;;;;;12.35;67.09;99726.59;5098599;28;20172;-63
2021/05/16 05:13:56;;;;;;;8.27;7.23;;;;;;;12.94;65.75;99729.22;5097892;28;20644;-63
2021/05/16 05:16:21;;;;;;;7.83;7.23;;;;;;;12.49;67.33;99739.47;5098180;28;20229;-62
2021/05/16 05:18:46;;;;;;;7.60;7.00;;;;;;;12.39;68.16;99739.59;5117976;28;20572;-63
2021/05/16 05:21:12;;;;;;;8.60;7.80;;;;;;;12.18;68.12;99742.50;5118498;28;20215;-62
2021/05/16 05:23:37;;;;;;;8.60;7.63;;;;;;;12.84;66.42;99738.06;5118562;28;20183;-63
2021/05/16 05:26:02;;;;;;;8.00;7.20;;;;;;;12.39;67.54;99733.50;5118718;28;20243;-62
2021/05/16 05:28:27;;;;;;;8.30;7.63;;;;;;;12.77;66.40;99727.72;5118455;28;20552;-64
2021/05/16 05:30:53;;;;;;;8.07;7.33;;;;;;;12.96;66.04;99725.69;5118303;28;20175;-64
2021/05/16 05:33:19;;;;;;;7.50;6.90;;;;;;;12.44;67.53;99732.56;5116702;28;20434;-64
2021/05/16 05:35:45;;;;;;;7.60;7.00;;;;;;;12.77;66.09;99726.84;5118077;28;20183;-62
2021/05/16 05:38:10;;;;;;;7.77;7.17;;;;;;;12.80;66.45;99722.44;5112718;28;20405;-62
2021/05/16 05:40:36;;;;;;;7.80;7.10;;;;;;;13.12;65.69;99725.41;5098249;28;20416;-62
2021/05/16 05:43:01;;;;;;;8.97;7.20;;;;;;;12.99;66.04;99724.78;5097874;28;20516;-62
2021/05/16 05:45:26;;;;;;;8.43;7.60;;;;;;;13.04;65.98;99724.69;5098076;28;20449;-63
2021/05/16 05:47:52;;;;;;;8.37;7.67;;;;;;;12.97;65.68;99724.78;5098260;28;20229;-62
2021/05/16 05:50:17;;;;;;;7.40;6.80;;;;;;;13.12;65.58;99733.25;5097832;28;20172;-62
2021/05/16 05:52:42;;;;;;;7.60;7.00;;;;;;;13.12;65.76;99733.25;5097730;28;20188;-63
2021/05/16 05:55:08;;;;;;;8.00;7.30;;;;;;;13.25;65.60;99736.53;5098404;28;20447;-63
2021/05/16 05:57:33;;;;;;;7.80;7.20;;;;;;;12.84;66.65;99730.22;5097644;28;20225;-62
2021/05/16 05:59:59;;;;;;;8.00;7.33;;;;;;;13.33;64.82;99724.19;5110374;28;20323;-63
2021/05/16 06:02:25;;;;;;;8.57;7.77;;;;;;;13.24;64.96;99727.81;5118457;28;20437;-63
2021/05/16 06:04:50;;;;;;;7.27;6.70;;;;;;;13.20;65.06;99722.66;5118197;28;20513;-63
2021/05/16 06:07:16;;;;;;;8.07;7.27;;;;;;;12.95;66.00;99725.72;5118165;28;20184;-62
2021/05/16 06:09:41;;;;;;;8.13;7.17;;;;;;;13.38;64.91;99719.75;5118869;28;20436;-62
2021/05/16 06:12:09;;;;;;;7.00;6.40;;;;;;;13.53;64.76;99726.47;5117881;28;20171;-62
2021/05/16 06:14:34;;;;;;;7.67;7.00;;;;;;;13.36;64.57;99726.75;5108024;28;20434;-63
2021/05/16 06:17:00;;;;;;;7.70;7.10;;;;;;;15.47;58.51;99726.44;5098011;28;20438;-63
2021/05/16 06:19:25;;;;;;;6.80;6.30;;;;;;;15.16;58.60;99727.25;5097769;28;20276;-63
2021/05/16 06:21:50;;;;;;;6.50;5.90;;;;;;;15.83;57.25;99723.75;5097618;28;20191;-63
2021/05/16 06:24:16;;;;;;;6.80;6.23;;;;;;;15.24;58.89;99729.69;5097746;28;20231;-63
2021/05/16 06:26:42;;;;;;;6.83;6.20;;;;;;;15.08;59.74;99728.34;5100817;28;20176;-63
2021/05/16 06:29:09;;;;;;;7.00;6.40;;;;;;;14.49;61.23;99734.94;5106199;28;20177;-64
2021/05/16 06:31:34;;;;;;;6.83;6.33;;;;;;;13.38;65.71;99727.63;5121511;27;20758;-63
2021/05/16 06:34:01;;;;;;;7.50;6.77;;;;;;;13.51;65.48;99732.63;5121654;28;20432;-63
2021/05/16 06:36:27;;;;;;;7.47;6.87;;;;;;;13.75;64.35;99734.75;5121976;28;20248;-63
2021/05/16 06:38:52;;;;;;;7.37;6.67;;;;;;;14.49;62.04;99729.69;5121573;28;20388;-63
2021/05/16 06:41:18;;;;;;;7.03;6.43;;;;;;;15.29;59.53;99732.22;5121245;28;20493;-62
2021/05/16 06:43:45;;;;;;;6.83;6.33;;;;;;;16.54;55.48;99723.41;5117668;28;20173;-63
2021/05/16 06:46:11;;;;;;;7.00;6.40;;;;;;;15.37;58.02;99734.59;5100968;28;20255;-63
2021/05/16 06:48:36;;;;;;;6.73;6.13;;;;;;;15.48;58.83;99728.19;5100295;28;20869;-63
2021/05/16 06:51:03;;;;;;;7.27;6.47;;;;;;;16.98;54.66;99715.88;5100684;28;20184;-62
2021/05/16 06:53:28;;;;;;;6.90;6.30;;;;;;;16.15;55.95;99721.09;5113191;28;20172;-61
2021/05/16 06:55:54;;;;;;;8.13;7.43;;;;;;;16.27;55.77;99718.06;5100466;28;20434;-62
2021/05/16 06:58:19;;;;;;;7.30;6.70;;;;;;;16.24;56.16;99723.44;5104325;28;20196;-63
2021/05/16 07:00:44;;;;;;;7.77;7.03;;;;;;;16.06;57.18;99723.97;5120629;28;20256;-63
2021/05/16 07:03:10;;;;;;;8.00;6.90;;;;;;;15.24;60.11;99736.72;5102608;28;20275;-63
2021/05/16 07:05:35;;;;;;;8.20;7.50;;;;;;;15.36;59.49;99738.13;5100996;28;20172;-63
2021/05/16 07:08:00;;;;;;;9.10;8.30;;;;;;;14.98;60.31;99730.34;5100265;28;20184;-63
2021/05/16 07:10:26;;;;;;;9.97;9.17;;;;;;;15.10;60.30;99739.66;5117939;28;20255;-63
2021/05/16 07:12:51;;;;;;;10.50;9.70;;;;;;;15.01;59.79;99740.78;5121008;28;20271;-62
2021/05/16 07:15:17;;;;;;;9.90;9.17;;;;;;;14.88;60.60;99742.81;5120795;28;20228;-63
2021/05/16 07:17:42;;;;;;;9.80;9.00;;;;;;;14.87;61.03;99745.47;5117260;27;20176;-62
2021/05/16 07:20:08;;;;;;;10.20;9.30;;;;;;;14.66;60.81;99747.72;5100559;28;20569;-62
2021/05/16 07:22:33;;;;;;;11.33;10.37;;;;;;;14.86;58.93;99746.41;5111597;27;20442;-64
2021/05/16 07:24:58;;;;;;;11.73;10.83;;;;;;;14.81;59.74;99742.09;5120391;28;20224;-62
2021/05/16 07:27:24;;;;;;;12.67;11.47;;;;;;;14.38;60.61;99742.19;5121126;28;20493;-64
2021/05/16 07:29:49;;;;;;;12.20;11.20;;;;;;;14.25;61.46;99739.84;5110020;28;20499;-64
2021/05/16 07:32:15;;;;;;;13.20;12.10;;;;;;;14.30;61.65;99742.38;5105771;28;20175;-64
2021/05/16 07:34:40;;;;;;;13.23;12.23;;;;;;;14.56;61.19;99746.16;5120908;28;20496;-63
2021/05/16 07:37:05;;;;;;;14.40;13.10;;;;;;;14.93;59.71;99740.94;5118379;28;20194;-62
2021/05/16 07:39:30;;;;;;;14.47;13.10;;;;;;;14.82;59.92;99748.22;5101197;28;20242;-62
2021/05/16 07:41:56;;;;;;;13.33;12.07;;;;;;;14.95;58.93;99743.53;5100328;28;20260;-61
2021/05/16 07:44:21;;;;;;;14.00;12.80;;;;;;;15.14;58.64;99747.44;5099901;28;20172;-62
2021/05/16 07:46:46;;;;;;;13.57;12.40;;;;;;;14.74;59.25;99744.94;5106065;28;20541;-61
2021/05/16 07:49:12;;;;;;;15.30;13.80;;;;;;;14.99;58.28;99739.94;5120778;28;20171;-62
2021/05/16 07:51:37;;;;;;;14.07;12.67;;;;;;;15.02;58.49;99742.50;5118319;28;20207;-62
2021/05/16 07:54:03;;;;;;;12.80;11.60;;;;;;;14.94;58.67;99740.06;5118586;28;20202;-62
2021/05/16 07:56:28;;;;;;;12.67;11.67;;;;;;;15.16;57.99;99743.00;5119357;28;20437;-62
2021/05/16 07:58:53;;;;;;;12.47;11.47;;;;;;;15.09;57.36;99740.59;5101007;28;20190;-62
2021/05/16 08:01:19;;;;;;;11.60;10.70;;;;;;;15.51;56.56;99742.16;5099114;28;20450;-61
2021/05/16 08:03:46;;;;;;;11.17;10.20;;;;;;;15.77;55.08;99733.53;5100040;28;20183;-61
2021/05/16 08:06:11;;;;;;;11.50;10.60;;;;;;;15.83;54.80;99731.63;5099432;28;20584;-61
2021/05/16 08:08:37;;;;;;;10.53;9.73;;;;;;;15.49;55.27;99732.53;5100586;28;20446;-62
2021/05/16 08:11:02;;;;;;;10.43;9.53;;;;;;;16.23;53.52;99726.13;5100092;28;20175;-62
2021/05/16 08:13:27;;;;;;;10.37;9.47;;;;;;;16.86;52.38;99715.38;5099109;28;20172;-62
2021/05/16 08:15:52;;;;;;;11.17;10.20;;;;;;;17.13;50.97;99718.88;5099525;28;20241;-62
2021/05/16 08:18:18;;;;;;;9.53;8.73;;;;;;;18.43;48.25;99714.22;5099682;28;20179;-62
2021/05/16 08:20:43;;;;;;;10.27;9.47;;;;;;;18.06;48.37;99708.56;5099005;28;20237;-62
2021/05/16 08:23:08;;;;;;;9.87;9.07;;;;;;;17.95;49.19;99713.41;5099132;28;20469;-62
2021/05/16 08:25:36;;;;;;;10.33;9.50;;;;;;;18.15;48.79;99710.03;5115141;28;20227;-61
2021/05/16 08:28:01;;;;;;;10.83;9.93;;;;;;;16.72;52.42;99713.19;5119528;28;20305;-62
2021/05/16 08:30:28;;;;;;;10.80;9.90;;;;;;;16.82;52.24;99714.63;5117859;28;20450;-61
2021/05/16 08:32:53;;;;;;;10.77;9.97;;;;;;;16.51;53.80;99726.13;5119411;28;20163;-62
2021/05/16 08:35:19;;;;;;;11.63;10.50;;;;;;;16.26;54.21;99720.75;5098622;28;20438;-62
2021/05/16 08:37:45;;;;;;;11.30;10.30;;;;;;;16.82;52.71;99715.50;5100398;28;20183;-62
2021/05/16 08:40:11;;;;;;;11.90;11.00;;;;;;;17.04;52.68;99717.44;5098840;28;20269;-62
2021/05/16 08:42:37;;;;;;;13.47;12.10;;;;;;;17.24;52.21;99716.78;5097364;28;20446;-63
2021/05/16 08:45:09;;;;;;;12.83;11.63;;;;;;;17.08;52.20;99720.84;5104385;28;20425;-62
2021/05/16 08:47:34;;;;;;;11.90;10.80;;;;;;;17.37;50.93;99714.56;5118361;28;20194;-62
2021/05/16 08:49:59;;;;;;;11.90;10.90;;;;;;;18.38;47.56;99711.75;5103555;28;20434;-62
2021/05/16 08:52:25;;;;;;;12.87;11.67;;;;;;;19.01;45.84;99722.44;5110681;28;20194;-63
2021/05/16 08:54:53;;;;;;;11.17;10.17;;;;;;;18.17;47.18;99713.44;5118226;28;20471;-64
2021/05/16 08:57:19;;;;;;;11.50;10.50;;;;;;;17.79;49.08;99720.97;5118732;28;20171;-62
2021/05/16 09:00:03;;;;;;;10.87;9.73;;;;;;;17.11;49.82;99718.94;5118547;28;20457;-65
2021/05/16 09:02:28;;;;;;;11.47;10.43;;;;;;;16.54;52.32;99725.19;5098036;28;20479;-63
2021/05/16 09:04:53;;;;;;;11.03;10.00;;;;;;;16.12;53.39;99722.03;5098316;28;20437;-64
2021/05/16 09:07:28;;;;;;;10.90;9.90;;;;;;;16.14;53.73;99716.72;5097703;28;20180;-64
2021/05/16 09:09:53;;;;;;;11.17;10.17;;;;;;;16.31;53.09;99724.13;5115210;28;20170;-64
2021/05/16 09:12:18;;;;;;;10.50;9.50;;;;;;;15.58;55.58;99738.44;5118866;28;20416;-66
2021/05/16 09:14:57;;;;;;;10.43;9.53;;;;;;;14.85;59.05;99740.28;5116246;28;20222;-64
2021/05/16 09:17:32;;;;;;;11.80;10.80;;;;;;;15.06;59.27;99744.16;5097763;28;20211;-64
2021/05/16 09:20:00;;;;;;;14.00;11.20;;;;;;;14.78;61.03;99742.19;5102430;28;20857;-64
2021/05/16 09:22:42;;;;;;;12.70;11.40;;;;;;;14.57;61.21;99746.16;5110002;28;20415;-65
2021/05/16 09:25:19;;;;;;;10.77;9.73;;;;;;;14.94;60.67;99749.69;5116716;28;20453;-65
2021/05/16 09:27:54;;;;;;;11.43;10.30;;;;;;;15.47;58.88;99751.84;5097513;28;20431;-66
2021/05/16 09:30:20;;;;;;;10.97;9.97;;;;;;;14.67;61.17;99749.44;5108647;28;20438;-64
2021/05/16 09:33:21;;;;;;;11.17;10.07;;;;;;;15.03;60.91;99752.06;5097922;28;20414;-64
2021/05/16 09:35:47;;;;;;;12.20;11.00;;;;;;;18.09;52.64;99734.84;5093988;28;20445;-64
2021/05/16 09:38:14;;;;;;;9.70;8.90;;;;;;;19.06;48.83;99732.81;5108724;28;20498;-64
2021/05/16 09:40:44;;;;;;;10.60;9.73;;;;;;;18.58;50.44;99724.19;5106687;28;20505;-65
2021/05/16 09:43:20;;;;;;;9.80;8.90;;;;;;;19.13;47.20;99731.66;5097832;28;20735;-64
2021/05/16 09:46:01;;;;;;;11.27;9.13;;;;;;;19.21;47.04;99727.81;5097957;28;20406;-65
2021/05/16 09:48:36;;;;;;;11.70;9.77;;;;;;;18.98;48.44;99722.59;5097949;28;20429;-65
2021/05/16 09:51:23;;;;;;;10.03;9.07;;;;;;;19.79;45.65;99717.34;5097704;28;20425;-65
2021/05/16 09:53:57;;;;;;;9.20;8.50;;;;;;;19.61;46.66;99723.47;5114061;28;20848;-64
2021/05/16 09:56:27;;;;;;;9.40;8.60;;;;;;;19.96;45.00;99719.25;5118143;28;20412;-64
2021/05/16 09:58:56;;;;;;;9.20;8.50;;;;;;;20.08;44.44;99714.31;5117450;28;20425;-63
2021/05/16 10:01:23;;;;;;;10.03;9.10;;;;;;;18.42;48.25;99723.06;5120744;28;20457;-64
2021/05/16 10:03:49;;;;;;;10.23;9.37;;;;;;;19.34;46.68;99718.44;5122185;28;20526;-64
2021/05/16 10:06:19;;;;;;;10.60;9.70;;;;;;;17.75;50.44;99716.75;5122376;27;20405;-64
2021/05/16 10:08:49;;;;;;;11.03;10.13;;;;;;;16.85;52.67;99725.06;5122044;28;20417;-64
2021/05/16 10:11:19;;;;;;;10.73;9.83;;;;;;;18.13;50.23;99715.34;5121898;28;20440;-65
2021/05/16 10:13:55;;;;;;;9.60;8.80;;;;;;;20.31;43.96;99706.19;5121632;28;20409;-66
2021/05/16 10:16:21;;;;;;;9.03;8.10;;;;;;;21.99;39.69;99698.66;5121882;28;20412;-67
2021/05/16 10:18:48;;;;;;;13.03;9.37;;;;;;;21.58;41.46;99699.94;5121946;28;20677;-65
2021/05/16 10:21:13;;;;;;;8.77;7.93;;;;;;;20.34;43.40;99699.88;5121528;28;20203;-66
2021/05/16 10:23:40;;;;;;;9.67;7.80;;;;;;;22.75;38.55;99687.34;5121183;28;20503;-65
2021/05/16 10:26:34;;;;;;;9.07;7.80;;;;;;;20.91;40.78;99688.34;5121621;28;20175;-65
2021/05/16 10:29:07;;;;;;;7.57;6.97;;;;;;;22.30;38.29;99689.84;5112606;28;20449;-66
2021/05/16 10:31:46;;;;;;;7.97;7.27;;;;;;;23.31;36.00;99676.13;5121591;28;20470;-66
2021/05/16 10:34:30;;;;;;;8.63;7.87;;;;;;;22.03;37.90;99673.66;5121604;28;20408;-66
2021/05/16 10:37:04;;;;;;;9.13;7.70;;;;;;;21.57;39.57;99684.09;5121338;28;20421;-65
2021/05/16 10:39:39;;;;;;;7.57;6.83;;;;;;;20.28;41.12;99681.63;5121449;28;20818;-65
2021/05/16 10:42:16;;;;;;;7.13;6.43;;;;;;;19.06;43.06;99690.56;5121183;28;20426;-66
2021/05/16 10:44:59;;;;;;;7.60;6.93;;;;;;;18.92;44.21;99700.84;5121253;28;20405;-65
2021/05/16 10:47:50;;;;;;;11.10;7.63;;;;;;;17.12;51.88;99733.84;5121522;28;20418;-64
2021/05/16 10:50:19;;;;;;;9.50;8.50;;;;;;;15.43;59.39;99729.22;5121254;28;20409;-63
2021/05/16 10:53:02;;;;;;;10.60;8.10;;;;;;;15.96;59.83;99728.66;5121105;28;20416;-64
2021/05/16 10:55:35;;;;;;;9.40;8.40;;;;;;;16.15;62.48;99721.94;5121114;28;20690;-64
2021/05/16 10:58:01;;;;;;;12.30;11.00;;;;;;;16.02;61.92;99728.47;5121168;28;20450;-64
2021/05/16 11:00:31;;;;;;;9.75;7.80;;;;;;;15.76;58.96;99727.44;5120638;28;20474;-64
2021/05/16 11:03:02;;;;;;;7.40;6.13;;;;;;;15.42;59.26;99740.59;5120966;28;20194;-63
2021/05/16 11:05:40;;;;;;;5.20;4.70;;;;;;;15.55;57.62;99735.91;5121139;28;20524;-64
2021/05/16 11:08:06;;;;;;;5.00;4.50;;;;;;;15.33;57.29;99739.09;5120960;28;20644;-64
2021/05/16 11:10:31;;;;;;;4.90;4.50;;;;;;;15.56;57.52;99732.34;5120688;28;20487;-63
2021/05/16 11:13:20;;;;;;;6.13;4.63;;;;;;;15.56;57.04;99738.50;5121143;28;20425;-63
2021/05/16 11:15:49;;;;;;;5.50;5.00;;;;;;;15.66;59.11;99733.84;5121136;28;20202;-62
2021/05/16 11:18:17;;;;;;;6.67;6.07;;;;;;;16.36;56.76;99723.97;5120936;28;20384;-63
2021/05/16 11:20:43;;;;;;;6.60;6.00;;;;;;;15.92;58.78;99722.59;5120691;28;20467;-64
2021/05/16 11:23:19;;;;;;;7.83;7.03;;;;;;;16.04;59.20;99723.19;5120746;28;20425;-62
2021/05/16 11:25:45;;;;;;;8.73;7.40;;;;;;;16.36;57.75;99721.34;5119956;28;20724;-63
2021/05/16 11:28:10;;;;;;;8.47;7.60;;;;;;;16.86;56.91;99715.38;5120690;28;20429;-63